Time;durP1;ratioP1;P1;durP2;ratioP2;P2;SDS_P1;SDS_P2;PMS_P1;PMS_P2;Temp;Humidity;BMP_temperature;BMP_pressure;BME280_temperature;BME280_humidity;BME280_pressure;Samples;Min_cycle;Max_cycle;Signal;HPM_P1;HPM_P2
2023/03/24 00:01:21;;;;;;;;;;;11.60;99.90;;;;;;5112273;28;19977;-62
2023/03/24 00:03:50;;;;;;;;;;;11.50;99.90;;;;;;5112216;28;20353;-63
2023/03/24 00:06:17;;;;;;;;;;;11.50;99.90;;;;;;5112192;28;19923;-62
2023/03/24 00:08:46;;;;;;;;;;;11.50;99.90;;;;;;5111449;28;20261;-62
2023/03/24 00:11:13;;;;;;;;;;;11.50;99.90;;;;;;5112174;28;20250;-61
2023/03/24 00:13:39;;;;;;;;;;;11.50;99.90;;;;;;5112470;28;20007;-62
2023/03/24 00:16:05;;;;;;;;;;;11.50;99.90;;;;;;5112070;28;19969;-62
2023/03/24 00:18:31;;;;;;;;;;;11.50;99.90;;;;;;5112214;28;19924;-61
2023/03/24 00:20:59;;;;;;;;;;;11.50;99.90;;;;;;5112328;28;19927;-63
2023/03/24 00:23:26;;;;;;;;;;;11.50;99.90;;;;;;5112400;28;19924;-61
2023/03/24 00:26:23;;;;;;;;;;;11.50;99.90;;;;;;5094397;28;19924;-62
2023/03/24 00:28:49;;;;;;;;;;;11.40;99.90;;;;;;5091451;28;19968;-62
2023/03/24 00:31:15;;;;;;;;;;;11.50;99.90;;;;;;5112587;28;19924;-62
2023/03/24 00:33:42;;;;;;;;;;;11.40;99.90;;;;;;5116456;28;19970;-63
2023/03/24 00:36:11;;;;;;;;;;;11.40;99.90;;;;;;5115819;28;20262;-63
2023/03/24 00:38:37;;;;;;;;;;;11.40;99.90;;;;;;5116092;28;19931;-61
2023/03/24 00:41:04;;;;;;;;;;;11.40;99.90;;;;;;5097452;28;20056;-65
2023/03/24 00:43:30;;;;;;;;;;;11.40;99.90;;;;;;5116330;28;19928;-62
2023/03/24 00:46:00;;;;;;;;;;;11.40;99.90;;;;;;5116302;28;19952;-62
2023/03/24 00:48:27;;;;;;;;;;;11.50;99.90;;;;;;5115933;28;19928;-63
2023/03/24 00:50:52;;;;;;;;;;;11.40;99.90;;;;;;5098076;28;19930;-61
2023/03/24 00:53:18;;;;;;;;;;;11.50;99.90;;;;;;5097696;28;19924;-63
2023/03/24 00:55:48;;;;;;;;;;;11.50;99.90;;;;;;5115863;28;20015;-62
2023/03/24 00:58:18;;;;;;;;;;;11.40;99.90;;;;;;5097701;28;19923;-62
2023/03/24 01:00:45;;;;;;;;;;;11.40;99.90;;;;;;5115654;28;19943;-63
2023/03/24 01:03:10;;;;;;;;;;;11.40;99.90;;;;;;5097103;28;19967;-61
2023/03/24 01:05:36;;;;;;;;;;;11.40;99.90;;;;;;5115478;28;20352;-64
2023/03/24 01:08:03;;;;;;;;;;;11.30;99.90;;;;;;5115688;28;20373;-62
2023/03/24 01:10:29;;;;;;;;;;;11.40;99.90;;;;;;5115159;28;19931;-63
2023/03/24 01:12:56;;;;;;;;;;;11.40;99.90;;;;;;5116047;28;19931;-63
2023/03/24 01:15:23;;;;;;;;;;;11.40;99.90;;;;;;5097309;28;19930;-63
2023/03/24 01:17:51;;;;;;;;;;;11.40;99.90;;;;;;5115557;28;20300;-62
2023/03/24 01:20:17;;;;;;;;;;;11.40;99.90;;;;;;5115153;28;19949;-61
2023/03/24 01:22:43;;;;;;;;;;;11.40;99.90;;;;;;5115167;28;20016;-62
2023/03/24 01:25:11;;;;;;;;;;;11.40;99.90;;;;;;5115085;28;19923;-65
2023/03/24 01:27:36;;;;;;;;;;;11.40;99.90;;;;;;5115088;28;19924;-62
2023/03/24 01:30:04;;;;;;;;;;;11.40;99.90;;;;;;5115306;28;19928;-61
2023/03/24 01:32:30;;;;;;;;;;;11.40;99.90;;;;;;5114689;28;19919;-63
2023/03/24 01:34:55;;;;;;;;;;;11.40;99.90;;;;;;5114948;28;20408;-62
2023/03/24 01:37:22;;;;;;;;;;;11.40;99.90;;;;;;5114883;28;19971;-63
2023/03/24 01:39:48;;;;;;;;;;;11.40;99.90;;;;;;5115121;28;19924;-62
2023/03/24 01:42:18;;;;;;;;;;;11.40;99.90;;;;;;5114330;28;19924;-63
2023/03/24 01:44:46;;;;;;;;;;;11.30;99.90;;;;;;5114255;28;19977;-63
2023/03/24 01:47:12;;;;;;;;;;;11.30;99.90;;;;;;5114629;28;19949;-66
2023/03/24 01:49:44;;;;;;;;;;;11.40;99.90;;;;;;5114770;28;20443;-62
2023/03/24 01:52:16;;;;;;;;;;;11.40;99.90;;;;;;5114833;28;19924;-62
2023/03/24 01:54:44;;;;;;;;;;;11.30;99.90;;;;;;5114488;28;20339;-63
2023/03/24 01:57:25;;;;;;;;;;;11.40;99.90;;;;;;5096856;28;20027;-62
2023/03/24 01:59:52;;;;;;;;;;;11.40;99.90;;;;;;5114712;28;19986;-63
2023/03/24 02:02:20;;;;;;;;;;;11.30;99.90;;;;;;5114292;28;20015;-62
2023/03/24 02:04:53;;;;;;;;;;;11.40;99.90;;;;;;5114503;28;19983;-63
2023/03/24 02:07:37;;;;;;;;;;;11.30;99.90;;;;;;5114203;28;19928;-62
2023/03/24 02:10:05;;;;;;;;;;;11.40;99.90;;;;;;5114346;28;19923;-63
2023/03/24 02:12:31;;;;;;;;;;;11.40;99.90;;;;;;5113968;28;19935;-62
2023/03/24 02:14:57;;;;;;;;;;;11.40;99.90;;;;;;5096424;28;20347;-63
2023/03/24 02:17:32;;;;;;;;;;;11.40;99.90;;;;;;5114015;28;19931;-61
2023/03/24 02:20:10;;;;;;;;;;;11.40;99.90;;;;;;5114289;28;20234;-63
2023/03/24 02:22:47;;;;;;;;;;;11.40;99.90;;;;;;5113895;28;20220;-62
2023/03/24 02:25:28;;;;;;;;;;;11.30;99.90;;;;;;5096317;28;19972;-62
2023/03/24 02:27:57;;;;;;;;;;;11.40;99.90;;;;;;5095795;28;20384;-61
2023/03/24 02:30:25;;;;;;;;;;;11.30;99.90;;;;;;5113818;28;19995;-63
2023/03/24 02:32:54;;;;;;;;;;;11.40;99.90;;;;;;5113973;28;19949;-63
2023/03/24 02:35:22;;;;;;;;;;;11.30;99.90;;;;;;5113698;28;19930;-64
2023/03/24 02:37:55;;;;;;;;;;;11.40;99.90;;;;;;5096072;28;19938;-62
2023/03/24 02:40:27;;;;;;;;;;;11.30;99.90;;;;;;5095008;28;19924;-63
2023/03/24 02:42:59;;;;;;;;;;;11.40;99.90;;;;;;5113762;28;19931;-62
2023/03/24 02:45:35;;;;;;;;;;;11.40;99.90;;;;;;5113390;28;20083;-62
2023/03/24 02:48:09;;;;;;;;;;;11.40;99.90;;;;;;5095610;28;19931;-62
2023/03/24 02:50:44;;;;;;;;;;;11.40;99.90;;;;;;5113247;28;20392;-64
2023/03/24 02:53:22;;;;;;;;;;;11.30;99.90;;;;;;5113480;28;19931;-63
2023/03/24 02:55:52;;;;;;;;;;;11.40;99.90;;;;;;5113424;28;20004;-62
2023/03/24 02:58:39;;;;;;;;;;;11.40;99.90;;;;;;5113616;28;19931;-62
2023/03/24 03:01:05;;;;;;;;;;;11.30;99.90;;;;;;5113724;28;19988;-63
2023/03/24 03:03:33;;;;;;;;;;;11.40;99.90;;;;;;5094624;28;20527;-63
2023/03/24 03:06:05;;;;;;;;;;;11.50;99.90;;;;;;5113628;28;19931;-62
2023/03/24 03:08:32;;;;;;;;;;;11.40;99.90;;;;;;5112821;28;20297;-62
2023/03/24 03:11:00;;;;;;;;;;;11.50;99.90;;;;;;5078465;28;19924;-62
2023/03/24 03:13:37;;;;;;;;;;;11.40;99.90;;;;;;5094710;28;19928;-62
2023/03/24 03:16:04;;;;;;;;;;;11.50;99.90;;;;;;5113167;28;19924;-62
2023/03/24 03:18:38;;;;;;;;;;;11.40;99.90;;;;;;5094346;28;19988;-63
2023/03/24 03:21:06;;;;;;;;;;;11.60;99.90;;;;;;5113222;28;20026;-62
2023/03/24 03:23:36;;;;;;;;;;;11.50;99.90;;;;;;5112707;28;19927;-62
2023/03/24 03:26:03;;;;;;;;;;;11.50;99.90;;;;;;5095040;28;19924;-62
2023/03/24 03:28:31;;;;;;;;;;;11.40;99.90;;;;;;5112583;28;19924;-62
2023/03/24 03:30:58;;;;;;;;;;;11.50;99.90;;;;;;5113338;28;19927;-62
2023/03/24 03:33:25;;;;;;;;;;;11.50;99.90;;;;;;5112848;28;20023;-65
2023/03/24 03:35:53;;;;;;;;;;;11.50;99.90;;;;;;5112894;28;19928;-62
2023/03/24 03:38:24;;;;;;;;;;;11.60;99.90;;;;;;5112939;28;20277;-62
2023/03/24 03:40:51;;;;;;;;;;;11.50;99.90;;;;;;5112633;28;19923;-62
2023/03/24 03:43:17;;;;;;;;;;;11.40;99.90;;;;;;5094771;28;19924;-63
2023/03/24 03:45:43;;;;;;;;;;;11.40;99.90;;;;;;5112548;28;19924;-62
2023/03/24 03:48:09;;;;;;;;;;;11.30;99.90;;;;;;5112694;28;19952;-61
2023/03/24 03:50:36;;;;;;;;;;;11.30;99.90;;;;;;5112372;28;19975;-62
2023/03/24 03:53:02;;;;;;;;;;;11.20;99.90;;;;;;5113063;28;19949;-62
2023/03/24 03:55:28;;;;;;;;;;;11.10;99.90;;;;;;5077891;28;20026;-66
2023/03/24 03:57:54;;;;;;;;;;;10.90;99.90;;;;;;5112585;28;19924;-61
2023/03/24 04:00:21;;;;;;;;;;;11.10;99.90;;;;;;5112711;28;19930;-62
2023/03/24 04:02:49;;;;;;;;;;;11.00;99.90;;;;;;5094268;28;19924;-62
2023/03/24 04:05:38;;;;;;;;;;;11.00;99.90;;;;;;5094355;28;19946;-63
2023/03/24 04:08:12;;;;;;;;;;;11.00;99.90;;;;;;5085004;28;20016;-62
2023/03/24 04:10:38;;;;;;;;;;;10.90;99.90;;;;;;5116521;28;19924;-62
2023/03/24 04:13:03;;;;;;;;;;;10.90;99.90;;;;;;5117125;28;19923;-61
2023/03/24 04:15:35;;;;;;;;;;;10.80;99.90;;;;;;5116531;28;19924;-65
2023/03/24 04:18:00;;;;;;;;;;;10.80;99.90;;;;;;5116772;28;19945;-62
2023/03/24 04:20:33;;;;;;;;;;;10.70;99.90;;;;;;5116605;28;19928;-62
2023/03/24 04:23:13;;;;;;;;;;;10.70;99.90;;;;;;5116572;28;19985;-61
2023/03/24 04:25:45;;;;;;;;;;;10.70;99.90;;;;;;5098081;28;20455;-61
2023/03/24 04:28:20;;;;;;;;;;;10.60;99.90;;;;;;5098434;28;20022;-63
2023/03/24 04:30:51;;;;;;;;;;;10.60;99.90;;;;;;5097908;28;19943;-62
2023/03/24 04:33:27;;;;;;;;;;;10.50;99.90;;;;;;5098497;28;19923;-62
2023/03/24 04:36:05;;;;;;;;;;;10.50;99.90;;;;;;5098100;28;19919;-62
2023/03/24 04:38:32;;;;;;;;;;;10.40;99.90;;;;;;5116198;28;19982;-62
2023/03/24 04:40:58;;;;;;;;;;;10.30;99.90;;;;;;5115940;28;19931;-62
2023/03/24 04:43:26;;;;;;;;;;;10.30;99.90;;;;;;5115944;28;19977;-61
2023/03/24 04:45:56;;;;;;;;;;;10.30;99.90;;;;;;5115403;28;20443;-62
2023/03/24 04:48:22;;;;;;;;;;;10.20;99.90;;;;;;5097790;28;19924;-61
2023/03/24 04:50:58;;;;;;;;;;;10.20;99.90;;;;;;5097332;28;19931;-62
2023/03/24 04:53:24;;;;;;;;;;;10.10;99.90;;;;;;5116130;28;19923;-62
2023/03/24 04:55:59;;;;;;;;;;;10.00;99.90;;;;;;5115624;28;20014;-62
2023/03/24 04:58:24;;;;;;;;;;;10.00;99.90;;;;;;5116016;28;19931;-62
2023/03/24 05:00:50;;;;;;;;;;;9.90;99.90;;;;;;5115424;28;19924;-62
2023/03/24 05:03:16;;;;;;;;;;;9.90;99.90;;;;;;5115870;28;20389;-61
2023/03/24 05:05:42;;;;;;;;;;;9.80;99.90;;;;;;5115428;28;19924;-62
2023/03/24 05:08:09;;;;;;;;;;;9.80;99.90;;;;;;5097193;28;20262;-62
2023/03/24 05:10:35;;;;;;;;;;;9.80;99.90;;;;;;5097804;28;20277;-61
2023/03/24 05:13:01;;;;;;;;;;;9.80;99.90;;;;;;5115223;28;19924;-62
2023/03/24 05:15:27;;;;;;;;;;;9.80;99.90;;;;;;5115554;28;19931;-63
2023/03/24 05:17:52;;;;;;;;;;;9.70;99.90;;;;;;5096776;28;19923;-63
2023/03/24 05:20:18;;;;;;;;;;;9.70;99.90;;;;;;5115218;28;19969;-62
2023/03/24 05:22:44;;;;;;;;;;;9.60;99.90;;;;;;5114909;28;19924;-63
2023/03/24 05:25:10;;;;;;;;;;;9.60;99.90;;;;;;5115105;28;20266;-63
2023/03/24 05:27:36;;;;;;;;;;;9.60;99.90;;;;;;5115185;28;19928;-62
2023/03/24 05:30:02;;;;;;;;;;;9.60;99.90;;;;;;5096812;28;19924;-62
2023/03/24 05:32:27;;;;;;;;;;;9.60;99.90;;;;;;5115141;28;19928;-62
2023/03/24 05:34:53;;;;;;;;;;;9.60;99.90;;;;;;5096643;28;19930;-63
2023/03/24 05:37:19;;;;;;;;;;;9.60;99.90;;;;;;5114553;28;19930;-63
2023/03/24 05:39:44;;;;;;;;;;;9.60;99.90;;;;;;5114555;28;20014;-61
2023/03/24 05:42:10;;;;;;;;;;;9.60;99.90;;;;;;5114569;28;20014;-61
2023/03/24 05:44:36;;;;;;;;;;;9.70;99.90;;;;;;5096706;28;19970;-61
2023/03/24 05:47:02;;;;;;;;;;;9.70;99.90;;;;;;5096022;28;20164;-62
2023/03/24 05:49:27;;;;;;;;;;;9.70;99.90;;;;;;5115073;28;19931;-62
2023/03/24 05:51:54;;;;;;;;;;;9.70;99.90;;;;;;5114321;28;20003;-64
2023/03/24 05:54:21;;;;;;;;;;;9.70;99.90;;;;;;5096278;28;20410;-62
2023/03/24 05:56:46;;;;;;;;;;;9.70;99.90;;;;;;5114245;28;19983;-62
2023/03/24 05:59:12;;;;;;;;;;;9.70;99.90;;;;;;5114557;28;19974;-63
2023/03/24 06:01:38;;;;;;;;;;;9.70;99.90;;;;;;5114545;28;19932;-62
2023/03/24 06:04:04;;;;;;;;;;;9.80;99.90;;;;;;5095780;28;19924;-62
2023/03/24 06:06:29;;;;;;;;;;;9.80;99.90;;;;;;5114355;28;19923;-62
2023/03/24 06:08:57;;;;;;;;;;;9.80;99.90;;;;;;5096098;28;19924;-63
2023/03/24 06:11:22;;;;;;;;;;;9.80;99.90;;;;;;5114450;28;20289;-61
2023/03/24 06:13:48;;;;;;;;;;;9.80;99.90;;;;;;5114104;28;19935;-63
2023/03/24 06:16:14;;;;;;;;;;;9.80;99.90;;;;;;5114273;28;20281;-62
2023/03/24 06:18:41;;;;;;;;;;;9.80;99.90;;;;;;5114354;28;19924;-62
2023/03/24 06:21:07;;;;;;;;;;;9.80;99.90;;;;;;5096158;28;19927;-62
2023/03/24 06:23:33;;;;;;;;;;;9.80;99.90;;;;;;5114333;28;20006;-62
2023/03/24 06:26:00;;;;;;;;;;;9.80;99.90;;;;;;5113527;28;19978;-63
2023/03/24 06:28:29;;;;;;;;;;;9.80;99.90;;;;;;5113856;28;19935;-62
2023/03/24 06:30:55;;;;;;;;;;;9.80;99.90;;;;;;5113101;28;19924;-62
2023/03/24 06:33:24;;;;;;;;;;;9.90;99.90;;;;;;5114016;28;19924;-62
2023/03/24 06:35:50;;;;;;;;;;;9.80;99.90;;;;;;5113617;28;20319;-65
2023/03/24 06:38:16;;;;;;;;;;;9.90;99.90;;;;;;5114014;28;20038;-62
2023/03/24 06:40:41;;;;;;;;;;;9.80;99.90;;;;;;5114018;28;20035;-61
2023/03/24 06:43:07;;;;;;;;;;;9.80;99.90;;;;;;5112919;28;19931;-61
2023/03/24 06:45:33;;;;;;;;;;;9.80;99.90;;;;;;5095868;28;19962;-62
2023/03/24 06:47:59;;;;;;;;;;;9.80;99.90;;;;;;5113303;28;19995;-63
2023/03/24 06:50:29;;;;;;;;;;;9.90;99.90;;;;;;5113798;28;19923;-62
2023/03/24 06:52:55;;;;;;;;;;;9.90;99.90;;;;;;5113404;28;19927;-63
2023/03/24 06:55:21;;;;;;;;;;;9.90;99.90;;;;;;5113882;28;20327;-61
2023/03/24 06:57:47;;;;;;;;;;;9.90;99.90;;;;;;5113617;28;19943;-61
2023/03/24 07:00:12;;;;;;;;;;;9.90;99.90;;;;;;5113185;28;20403;-63
2023/03/24 07:02:39;;;;;;;;;;;9.90;99.90;;;;;;5113558;28;20292;-62
2023/03/24 07:05:07;;;;;;;;;;;9.90;99.90;;;;;;5112400;28;20445;-62
2023/03/24 07:07:34;;;;;;;;;;;9.90;99.90;;;;;;5113036;28;19927;-62
2023/03/24 07:09:59;;;;;;;;;;;9.90;99.90;;;;;;5094930;28;19928;-63
2023/03/24 07:12:25;;;;;;;;;;;9.90;99.90;;;;;;5113169;28;19934;-62
2023/03/24 07:14:51;;;;;;;;;;;9.90;99.90;;;;;;5095301;28;19923;-62
2023/03/24 07:17:17;;;;;;;;;;;9.90;99.90;;;;;;5112827;28;19924;-61
2023/03/24 07:19:44;;;;;;;;;;;9.90;99.90;;;;;;5113067;28;19958;-62
2023/03/24 07:22:10;;;;;;;;;;;9.90;99.90;;;;;;5112495;28;20392;-61
2023/03/24 07:24:36;;;;;;;;;;;9.90;99.90;;;;;;5113038;28;19935;-60
2023/03/24 07:27:02;;;;;;;;;;;9.90;99.90;;;;;;5094256;28;20373;-61
2023/03/24 07:29:27;;;;;;;;;;;10.00;99.90;;;;;;5112805;28;19924;-61
2023/03/24 07:31:57;;;;;;;;;;;10.00;99.90;;;;;;5095172;28;19969;-61
2023/03/24 07:34:23;;;;;;;;;;;10.00;99.90;;;;;;5094948;28;19928;-60
2023/03/24 07:36:49;;;;;;;;;;;10.00;99.90;;;;;;5112988;28;19923;-62
2023/03/24 07:39:15;;;;;;;;;;;10.00;99.90;;;;;;5112380;28;20210;-61
2023/03/24 07:41:41;;;;;;;;;;;10.10;99.90;;;;;;5111568;28;20014;-62
2023/03/24 07:44:06;;;;;;;;;;;10.10;99.90;;;;;;5094535;28;19971;-61
2023/03/24 07:46:32;;;;;;;;;;;10.10;99.90;;;;;;5112730;28;19970;-62
2023/03/24 07:48:57;;;;;;;;;;;10.10;99.90;;;;;;5094751;28;19923;-65
2023/03/24 07:51:23;;;;;;;;;;;10.10;99.90;;;;;;5112392;28;19924;-62
2023/03/24 07:53:48;;;;;;;;;;;10.10;99.90;;;;;;5112315;28;20411;-62
2023/03/24 07:56:14;;;;;;;;;;;10.20;99.90;;;;;;5093969;28;19946;-62
2023/03/24 07:58:40;;;;;;;;;;;10.20;99.90;;;;;;5112567;28;19924;-60
2023/03/24 08:01:09;;;;;;;;;;;10.30;99.90;;;;;;5112194;28;19935;-61
2023/03/24 08:03:35;;;;;;;;;;;10.30;99.90;;;;;;5094534;28;19924;-62
2023/03/24 08:06:02;;;;;;;;;;;10.40;99.90;;;;;;5112343;28;20067;-65
2023/03/24 08:08:28;;;;;;;;;;;10.40;99.90;;;;;;5112563;28;19928;-61
2023/03/24 08:10:53;;;;;;;;;;;10.50;99.90;;;;;;5111967;28;19923;-61
2023/03/24 08:13:19;;;;;;;;;;;10.50;99.90;;;;;;5094062;28;19930;-63
2023/03/24 08:15:45;;;;;;;;;;;10.10;99.90;;;;;;5112601;28;19927;-61
2023/03/24 08:18:10;;;;;;;;;;;10.60;99.90;;;;;;5112159;28;20001;-63
2023/03/24 08:20:36;;;;;;;;;;;10.60;99.90;;;;;;5077523;28;19928;-63
2023/03/24 08:23:03;;;;;;;;;;;10.70;99.90;;;;;;5112476;28;19979;-66
2023/03/24 08:25:29;;;;;;;;;;;10.90;99.90;;;;;;5112268;28;19927;-63
2023/03/24 08:27:55;;;;;;;;;;;11.00;99.90;;;;;;5112348;28;19924;-62
2023/03/24 08:30:22;;;;;;;;;;;11.10;99.90;;;;;;5111996;28;19924;-65
2023/03/24 08:32:50;;;;;;;;;;;11.10;99.90;;;;;;5112295;28;19930;-64
2023/03/24 08:35:17;;;;;;;;;;;11.20;99.90;;;;;;5111901;28;20018;-62
2023/03/24 08:37:44;;;;;;;;;;;11.30;99.90;;;;;;5112103;28;19923;-62
2023/03/24 08:40:12;;;;;;;;;;;11.40;99.90;;;;;;5111468;28;19960;-62
2023/03/24 08:42:38;;;;;;;;;;;11.80;99.90;;;;;;5112151;28;19924;-62
2023/03/24 08:45:03;;;;;;;;;;;12.10;99.90;;;;;;5112036;28;19923;-63
2023/03/24 08:47:29;;;;;;;;;;;12.20;99.90;;;;;;5093700;28;19980;-63
2023/03/24 08:49:56;;;;;;;;;;;12.70;99.90;;;;;;5112270;28;19966;-62
2023/03/24 08:52:22;;;;;;;;;;;13.10;99.90;;;;;;5112504;28;20018;-62
2023/03/24 08:54:48;;;;;;;;;;;13.80;99.90;;;;;;5116041;28;19978;-63
2023/03/24 08:57:13;;;;;;;;;;;14.40;99.90;;;;;;5097500;28;20365;-62
2023/03/24 08:59:39;;;;;;;;;;;15.10;99.90;;;;;;5097866;28;19981;-63
2023/03/24 09:02:04;;;;;;;;;;;15.50;99.90;;;;;;5097741;28;19923;-62
2023/03/24 09:04:30;;;;;;;;;;;15.10;99.90;;;;;;5115322;28;19924;-63
2023/03/24 09:06:59;;;;;;;;;;;15.10;99.90;;;;;;5115819;28;20018;-64
2023/03/24 09:09:26;;;;;;;;;;;14.50;99.90;;;;;;5115409;28;19923;-62
2023/03/24 09:11:51;;;;;;;;;;;14.30;99.90;;;;;;5115721;28;19927;-62
2023/03/24 09:14:17;;;;;;;;;;;14.40;99.90;;;;;;5115056;28;19969;-62
2023/03/24 09:16:42;;;;;;;;;;;15.00;99.90;;;;;;5115401;28;19924;-63
2023/03/24 09:19:08;;;;;;;;;;;15.50;99.90;;;;;;5115690;28;20302;-66
2023/03/24 09:21:34;;;;;;;;;;;15.90;99.90;;;;;;5115077;28;19924;-63
2023/03/24 09:24:00;;;;;;;;;;;15.90;99.90;;;;;;5115375;28;19931;-63
2023/03/24 09:26:26;;;;;;;;;;;15.60;99.90;;;;;;5114688;28;20296;-64
2023/03/24 09:28:51;;;;;;;;;;;15.20;99.90;;;;;;5115454;28;20314;-63
2023/03/24 09:31:17;;;;;;;;;;;14.80;99.90;;;;;;5115007;28;19924;-62
2023/03/24 09:33:42;;;;;;;;;;;14.40;99.90;;;;;;5115286;28;19950;-64
2023/03/24 09:36:08;;;;;;;;;;;13.80;99.90;;;;;;5115252;28;19963;-63
2023/03/24 09:38:34;;;;;;;;;;;13.50;99.90;;;;;;5114337;28;19924;-64
2023/03/24 09:41:01;;;;;;;;;;;13.10;99.90;;;;;;5115233;28;19923;-62
2023/03/24 09:43:36;;;;;;;;;;;12.90;99.90;;;;;;5114771;28;19967;-63
2023/03/24 09:46:03;;;;;;;;;;;12.70;99.90;;;;;;5096779;28;20014;-63
2023/03/24 09:48:41;;;;;;;;;;;12.60;99.90;;;;;;5114523;28;20022;-64
2023/03/24 09:51:14;;;;;;;;;;;12.60;99.90;;;;;;5096981;28;19924;-63
2023/03/24 09:53:46;;;;;;;;;;;12.50;99.90;;;;;;5096644;28;19924;-63
2023/03/24 09:56:13;;;;;;;;;;;12.40;99.90;;;;;;5114480;28;20403;-63
2023/03/24 09:58:40;;;;;;;;;;;12.30;99.90;;;;;;5114302;28;19923;-64
2023/03/24 10:01:13;;;;;;;;;;;12.40;99.90;;;;;;5114593;28;19927;-62
2023/03/24 10:03:39;;;;;;;;;;;12.40;99.90;;;;;;5095429;28;19932;-63
2023/03/24 10:06:05;;;;;;;;;;;12.50;99.90;;;;;;5114129;28;19924;-62
2023/03/24 10:08:30;;;;;;;;;;;12.70;99.90;;;;;;5113965;28;20320;-62
2023/03/24 10:11:00;;;;;;;;;;;12.90;99.90;;;;;;5114298;28;20448;-62
2023/03/24 10:13:46;;;;;;;;;;;13.00;99.90;;;;;;5114483;28;19929;-62
2023/03/24 10:16:20;;;;;;;;;;;13.20;99.90;;;;;;5095521;28;20288;-62
2023/03/24 10:18:55;;;;;;;;;;;13.20;99.90;;;;;;5114562;28;19928;-63
2023/03/24 10:21:24;;;;;;;;;;;13.10;99.90;;;;;;5095850;28;19923;-66
2023/03/24 10:23:57;;;;;;;;;;;13.10;99.90;;;;;;5079648;28;19924;-62
2023/03/24 10:26:32;;;;;;;;;;;13.20;99.90;;;;;;5114137;28;19983;-63
2023/03/24 10:29:00;;;;;;;;;;;13.20;99.90;;;;;;5114052;28;19931;-62
2023/03/24 10:31:33;;;;;;;;;;;13.30;99.90;;;;;;5113706;28;19978;-63
2023/03/24 10:33:59;;;;;;;;;;;13.40;99.90;;;;;;5114086;28;19924;-63
2023/03/24 10:36:25;;;;;;;;;;;13.60;99.90;;;;;;5113457;28;20018;-62
2023/03/24 10:38:50;;;;;;;;;;;13.80;99.90;;;;;;5113665;28;19923;-61
2023/03/24 10:41:20;;;;;;;;;;;13.80;99.90;;;;;;5114002;28;19931;-61
2023/03/24 10:43:47;;;;;;;;;;;13.80;99.90;;;;;;5113113;28;19943;-63
2023/03/24 10:46:17;;;;;;;;;;;13.80;99.90;;;;;;5113247;28;19924;-62
2023/03/24 10:48:44;;;;;;;;;;;13.90;99.90;;;;;;5113001;28;20487;-62
2023/03/24 10:51:15;;;;;;;;;;;14.00;99.90;;;;;;5095581;28;19923;-62
2023/03/24 10:53:41;;;;;;;;;;;14.00;99.90;;;;;;5095128;28;19968;-63
2023/03/24 10:56:07;;;;;;;;;;;14.10;99.90;;;;;;5095542;28;19924;-61
2023/03/24 10:58:39;;;;;;;;;;;14.20;99.90;;;;;;5113077;28;19931;-63
2023/03/24 11:01:16;;;;;;;;;;;14.30;99.90;;;;;;5113374;28;20064;-62
2023/03/24 11:03:44;;;;;;;;;;;14.20;99.90;;;;;;5113059;28;19924;-63
2023/03/24 11:06:15;;;;;;;;;;;14.10;99.90;;;;;;5095507;28;19928;-62
2023/03/24 11:08:41;;;;;;;;;;;13.90;99.90;;;;;;5094927;28;20402;-63
2023/03/24 11:11:25;;;;;;;;;;;13.80;99.90;;;;;;5113578;28;19924;-64
2023/03/24 11:13:55;;;;;;;;;;;13.70;99.90;;;;;;5113334;28;19939;-63
2023/03/24 11:16:25;;;;;;;;;;;13.70;99.90;;;;;;5113400;28;19955;-64
2023/03/24 11:18:54;;;;;;;;;;;13.60;99.90;;;;;;5113321;28;19938;-65
2023/03/24 11:21:20;;;;;;;;;;;13.50;99.90;;;;;;5095672;28;20351;-62
2023/03/24 11:23:45;;;;;;;;;;;13.40;99.90;;;;;;5094863;28;19936;-62
2023/03/24 11:26:18;;;;;;;;;;;13.40;99.90;;;;;;5112903;28;19930;-64
2023/03/24 11:28:51;;;;;;;;;;;13.40;99.90;;;;;;5112554;28;20018;-63
2023/03/24 11:31:24;;;;;;;;;;;13.60;99.90;;;;;;5112896;28;19923;-62
2023/03/24 11:33:56;;;;;;;;;;;13.80;99.90;;;;;;5094209;28;20047;-64
2023/03/24 11:36:38;;;;;;;;;;;14.00;99.90;;;;;;5094645;28;19924;-63
2023/03/24 11:39:18;;;;;;;;;;;14.10;99.90;;;;;;5112552;28;19977;-64
2023/03/24 11:42:04;;;;;;;;;;;14.10;99.90;;;;;;5111906;28;19924;-62
2023/03/24 11:44:36;;;;;;;;;;;14.10;99.90;;;;;;5111637;28;19931;-64
2023/03/24 11:47:03;;;;;;;;;;;14.00;99.90;;;;;;5112469;28;19984;-62
2023/03/24 11:49:36;;;;;;;;;;;14.10;99.90;;;;;;5109729;28;19941;-62
2023/03/24 11:52:03;;;;;;;;;;;14.10;99.90;;;;;;5092345;28;19931;-62
2023/03/24 11:54:32;;;;;;;;;;;14.10;99.90;;;;;;5112120;28;19978;-60
2023/03/24 11:56:59;;;;;;;;;;;14.10;99.90;;;;;;5112268;28;19924;-63
2023/03/24 11:59:26;;;;;;;;;;;14.10;99.90;;;;;;5112199;28;19923;-62
2023/03/24 12:01:58;;;;;;;;;;;14.20;99.90;;;;;;5093924;28;20011;-62
2023/03/24 12:04:27;;;;;;;;;;;14.20;99.90;;;;;;5112055;28;19924;-62
2023/03/24 12:07:28;;;;;;;;;;;14.30;99.90;;;;;;5111940;28;19923;-63
2023/03/24 12:10:12;;;;;;;;;;;14.30;99.90;;;;;;5111906;28;19920;-62
2023/03/24 12:12:47;;;;;;;;;;;14.40;99.90;;;;;;5112215;28;20337;-64
2023/03/24 12:15:12;;;;;;;;;;;14.40;99.90;;;;;;5112562;28;19934;-62
2023/03/24 12:17:50;;;;;;;;;;;14.40;99.90;;;;;;5093841;28;19924;-62
2023/03/24 12:20:22;;;;;;;;;;;14.50;99.90;;;;;;5112604;28;20334;-62
2023/03/24 12:22:47;;;;;;;;;;;14.60;99.90;;;;;;5111910;28;19924;-62
2023/03/24 12:25:16;;;;;;;;;;;14.70;99.90;;;;;;5112471;28;19924;-64
2023/03/24 12:27:51;;;;;;;;;;;14.60;99.90;;;;;;5113310;28;19931;-63
2023/03/24 12:30:17;;;;;;;;;;;14.40;99.90;;;;;;5115919;28;20447;-62
2023/03/24 12:32:49;;;;;;;;;;;14.30;99.90;;;;;;5116060;28;20372;-62
2023/03/24 12:35:20;;;;;;;;;;;14.30;99.90;;;;;;5098652;28;19967;-62
2023/03/24 12:37:54;;;;;;;;;;;14.30;99.90;;;;;;5098192;28;19981;-62
2023/03/24 12:40:32;;;;;;;;;;;14.20;99.90;;;;;;5116241;28;19923;-63
2023/03/24 12:43:16;;;;;;;;;;;14.20;99.90;;;;;;5115841;28;19924;-62
2023/03/24 12:45:44;;;;;;;;;;;14.10;99.90;;;;;;5115518;28;20010;-62
2023/03/24 12:48:30;;;;;;;;;;;14.00;99.90;;;;;;5116063;28;19978;-62
2023/03/24 12:51:00;;;;;;;;;;;14.00;99.90;;;;;;5115730;28;19928;-62
2023/03/24 12:53:46;;;;;;;;;;;14.00;99.90;;;;;;5098381;28;20274;-62
2023/03/24 12:56:15;;;;;;;;;;;14.00;99.90;;;;;;5096853;28;20365;-63
2023/03/24 12:58:45;;;;;;;;;;;14.00;99.90;;;;;;5115687;28;20330;-65
2023/03/24 13:01:15;;;;;;;;;;;14.10;99.90;;;;;;5097348;28;19924;-62
2023/03/24 13:03:55;;;;;;;;;;;14.10;99.90;;;;;;5115577;28;19963;-64
2023/03/24 13:06:31;;;;;;;;;;;14.10;99.90;;;;;;5115109;28;20411;-62
2023/03/24 13:09:21;;;;;;;;;;;14.30;99.90;;;;;;5115512;28;19969;-62
2023/03/24 13:12:00;;;;;;;;;;;14.30;99.90;;;;;;5084477;28;19924;-61
2023/03/24 13:14:30;;;;;;;;;;;14.30;99.90;;;;;;5097496;28;20421;-63
2023/03/24 13:17:00;;;;;;;;;;;14.30;99.90;;;;;;5097333;28;19927;-61
2023/03/24 13:19:26;;;;;;;;;;;14.30;99.90;;;;;;5097453;28;19928;-62
2023/03/24 13:21:53;;;;;;;;;;;14.40;99.90;;;;;;5115024;28;20027;-62
2023/03/24 13:24:19;;;;;;;;;;;14.30;99.90;;;;;;5097073;28;19930;-61
2023/03/24 13:26:46;;;;;;;;;;;14.10;99.90;;;;;;5114969;28;19923;-64
2023/03/24 13:29:18;;;;;;;;;;;14.10;99.90;;;;;;5115222;28;19977;-61
2023/03/24 13:31:51;;;;;;;;;;;14.00;99.90;;;;;;5115204;28;19994;-61
2023/03/24 13:34:23;;;;;;;;;;;13.90;99.90;;;;;;5096798;28;19931;-61
2023/03/24 13:36:51;;;;;;;;;;;13.70;99.90;;;;;;5114696;28;19924;-62
2023/03/24 13:39:19;;;;;;;;;;;13.60;99.90;;;;;;5095592;28;20023;-62
2023/03/24 13:41:49;;;;;;;;;;;13.60;99.90;;;;;;5114743;28;19969;-61
2023/03/24 13:44:20;;;;;;;;;;;13.60;99.90;;;;;;5114780;28;19977;-61
2023/03/24 13:47:04;;;;;;;;;;;13.60;99.90;;;;;;5114677;28;19928;-65
2023/03/24 13:49:31;;;;;;;;;;;13.60;99.90;;;;;;5115005;28;19967;-62
2023/03/24 13:52:00;;;;;;;;;;;13.70;99.90;;;;;;5114388;28;19924;-62
2023/03/24 13:54:26;;;;;;;;;;;13.80;99.90;;;;;;5096427;28;19934;-63
2023/03/24 13:57:14;;;;;;;;;;;13.80;99.90;;;;;;5096180;28;19976;-62
2023/03/24 13:59:41;;;;;;;;;;;13.80;99.90;;;;;;5114752;28;19984;-61
2023/03/24 14:02:10;;;;;;;;;;;13.80;99.90;;;;;;5114229;28;19931;-62
2023/03/24 14:04:45;;;;;;;;;;;13.70;99.90;;;;;;5114124;28;19928;-61
2023/03/24 14:07:33;;;;;;;;;;;13.70;99.90;;;;;;5114285;28;19980;-62
2023/03/24 14:10:21;;;;;;;;;;;13.70;99.90;;;;;;5114119;28;19924;-61
2023/03/24 14:12:51;;;;;;;;;;;13.80;99.90;;;;;;5096012;28;20391;-61
2023/03/24 14:15:37;;;;;;;;;;;13.80;99.90;;;;;;5096264;28;20018;-63
2023/03/24 14:18:21;;;;;;;;;;;13.80;99.90;;;;;;5095786;28;19924;-62
2023/03/24 14:20:56;;;;;;;;;;;13.80;99.90;;;;;;5095879;28;19924;-62
2023/03/24 14:23:28;;;;;;;;;;;13.80;99.90;;;;;;5114032;28;20395;-61
2023/03/24 14:25:55;;;;;;;;;;;13.80;99.90;;;;;;5113684;28;19946;-65
2023/03/24 14:28:50;;;;;;;;;;;13.80;99.90;;;;;;5114283;28;19930;-62
2023/03/24 14:31:23;;;;;;;;;;;13.80;99.90;;;;;;5091379;28;19932;-62